Погода Жакутингана неделю

Минас-Жерайс, Бразилия

25 - 31 июля
  • 25июля
    Сегодня
    +10°
    +25°
    Ясно и безоблачно
    ВремяПогодаТемператураВлажностьДавлениеВетер, м/сВероятность осадков
    00:00Практически безоблачно+12°C73 %699 мм2.3 м/с5 %
    03:00Ясно и безоблачно+12°C76 %699 мм3.1 м/с5 %
    06:00Ясно и безоблачно+11°C78 %699 мм3.3 м/с5 %
    09:00Ясно и безоблачно+15°C59 %701 мм2.3 м/с5 %
    12:00Ясно и безоблачно+23°C33 %702 мм1.5 м/с5 %
    15:00Ясно и безоблачно+25°C31 %700 мм2.4 м/с5 %
    18:00Ясно и безоблачно+21°C45 %699 мм1.6 м/с5 %
    21:00Ясно и безоблачно+17°C53 %698 мм1.2 м/с5 %
  • 26июля
    Пятница
    +11°
    +26°
    Облачно с прояснениями
    ВремяПогодаТемператураВлажностьДавлениеВетер, м/сВероятность осадков
    00:00Ясно и безоблачно+13°C71 %698 мм2.0 м/с5 %
    03:00Ясно и безоблачно+12°C81 %697 мм2.5 м/с5 %
    06:00Ясно и безоблачно+12°C78 %697 мм2.8 м/с5 %
    09:00Практически безоблачно+17°C55 %700 мм2.1 м/с5 %
    12:00Ясно и безоблачно+23°C30 %700 мм0.9 м/с5 %
    15:00Облачно с прояснениями+26°C28 %698 мм0.3 м/с5 %
    18:00Облачно с прояснениями+22°C45 %698 мм1.8 м/с5 %
    21:00Облачно с прояснениями+16°C54 %698 мм1.4 м/с5 %
  • 27июля
    Суббота
    +11°
    +27°
    Небольшая облачность
    ВремяПогодаТемператураВлажностьДавлениеВетер, м/сВероятность осадков
    00:00Облачно с прояснениями+13°C72 %698 мм2.1 м/с5 %
    03:00Небольшая облачность+12°C69 %696 мм2.6 м/с5 %
    06:00Облачно с прояснениями+12°C64 %697 мм2.9 м/с5 %
    09:00Облачно с прояснениями+17°C49 %700 мм2.5 м/с5 %
    12:00Облачно с прояснениями+24°C28 %700 мм1.3 м/с5 %
    15:00Небольшая облачность+26°C27 %699 мм2.1 м/с5 %
    18:00Облачно с прояснениями+22°C50 %699 мм1.6 м/с5 %
    21:00Практически безоблачно+17°C52 %699 мм2.1 м/с5 %
  • 28июля
    Воскресенье
    +12°
    +28°
    Практически безоблачно
    ВремяПогодаТемператураВлажностьДавлениеВетер, м/сВероятность осадков
    00:00Небольшая облачность+15°C59 %698 мм2.4 м/с5 %
    03:00Ясно и безоблачно+14°C66 %697 мм2.6 м/с5 %
    06:00Ясно и безоблачно+13°C68 %697 мм2.8 м/с5 %
    09:00Ясно и безоблачно+18°C49 %700 мм2.9 м/с5 %
    12:00Ясно и безоблачно+26°C28 %700 мм2.6 м/с5 %
    15:00Практически безоблачно+28°C26 %698 мм3.2 м/с5 %
    18:00Ясно и безоблачно+23°C45 %698 мм1.6 м/с5 %
    21:00Ясно и безоблачно+17°C53 %698 мм2.3 м/с5 %
  • 29июля
    Понедельник
    +10°
    +28°
    Небольшая облачность
    ВремяПогодаТемператураВлажностьДавлениеВетер, м/сВероятность осадков
    00:00Небольшая облачность+16°C70 %698 мм0.8 м/с5 %
    03:00Ясно и безоблачно+15°C73 %697 мм1.9 м/с5 %
    06:00Ясно и безоблачно+13°C72 %697 мм2.6 м/с5 %
    09:00Ясно и безоблачно+19°C51 %700 мм2.5 м/с5 %
    12:00Ясно и безоблачно+27°C29 %700 мм3.0 м/с5 %
    15:00Небольшая облачность+28°C28 %699 мм4.1 м/с5 %
    18:00Практически безоблачно+23°C42 %698 мм1.7 м/с4 %
    21:00Небольшая облачность+17°C57 %698 мм2.2 м/с10 %
Мы используем cookies
Соглашаюсь